createdAt,value
2023-04-25T00:00:24.806Z,18.9
2023-04-25T00:01:39.973Z,18.9
2023-04-25T00:02:56.137Z,18.9
2023-04-25T00:04:12.296Z,18.9
2023-04-25T00:05:28.432Z,18.9
2023-04-25T00:06:44.600Z,18.9
2023-04-25T00:08:00.742Z,18.9
2023-04-25T00:09:16.905Z,18.9
2023-04-25T00:10:33.056Z,18.9
2023-04-25T00:11:49.225Z,18.9
2023-04-25T00:13:05.388Z,18.9
2023-04-25T00:14:21.552Z,18.9
2023-04-25T00:15:37.716Z,18.9
2023-04-25T00:16:53.884Z,18.9
2023-04-25T00:18:09.064Z,18.9
2023-04-25T00:19:25.231Z,18.9
2023-04-25T00:20:41.403Z,18.9
2023-04-25T00:21:57.552Z,18.9
2023-04-25T00:23:13.724Z,18.9
2023-04-25T00:24:28.903Z,18.9
2023-04-25T00:25:45.058Z,18.9
2023-04-25T00:27:01.210Z,18.9
2023-04-25T00:28:17.367Z,18.9
2023-04-25T00:29:33.529Z,18.9
2023-04-25T00:30:49.678Z,18.9
2023-04-25T00:32:05.843Z,18.9
2023-04-25T00:33:21.990Z,18.9
2023-04-25T00:34:38.150Z,18.9
2023-04-25T00:35:54.300Z,18.9
2023-04-25T00:37:10.464Z,18.9
2023-04-25T00:38:26.608Z,18.9
2023-04-25T00:39:42.000Z,18.8
2023-04-25T00:40:57.950Z,18.9
2023-04-25T00:42:14.101Z,18.9
2023-04-25T00:43:30.259Z,18.9
2023-04-25T00:44:46.417Z,18.8
2023-04-25T00:46:02.580Z,18.8
2023-04-25T00:47:18.718Z,18.8
2023-04-25T00:48:34.868Z,18.8
2023-04-25T00:49:51.027Z,18.8
2023-04-25T00:51:07.178Z,18.8
2023-04-25T00:52:23.328Z,18.8
2023-04-25T00:53:39.493Z,18.8
2023-04-25T00:54:55.652Z,18.8
2023-04-25T00:56:11.787Z,18.8
2023-04-25T00:57:26.958Z,18.8
2023-04-25T00:58:43.136Z,18.8
2023-04-25T00:59:59.279Z,18.8
2023-04-25T01:01:15.444Z,18.8
2023-04-25T01:02:31.609Z,18.8
2023-04-25T01:03:47.756Z,18.8
2023-04-25T01:05:03.904Z,18.8
2023-04-25T01:06:20.070Z,18.8
2023-04-25T01:07:36.219Z,18.8
2023-04-25T01:08:52.377Z,18.8
2023-04-25T01:10:08.529Z,18.8
2023-04-25T01:11:24.686Z,18.8
2023-04-25T01:12:40.838Z,18.8
2023-04-25T01:13:56.027Z,18.8
2023-04-25T01:15:12.178Z,18.8
2023-04-25T01:16:28.351Z,18.8
2023-04-25T01:17:44.515Z,18.8
2023-04-25T01:19:00.659Z,18.8
2023-04-25T01:20:16.816Z,18.8
2023-04-25T01:21:32.975Z,18.8
2023-04-25T01:22:49.153Z,18.8
2023-04-25T01:24:05.304Z,18.8
2023-04-25T01:25:21.469Z,18.8
2023-04-25T01:26:37.641Z,18.8
2023-04-25T01:27:53.806Z,18.8
2023-04-25T01:29:09.979Z,18.8
2023-04-25T01:30:25.147Z,18.8
2023-04-25T01:31:41.312Z,18.8
2023-04-25T01:32:57.478Z,18.8
2023-04-25T01:34:13.622Z,18.8
2023-04-25T01:35:29.799Z,18.8
2023-04-25T01:36:45.950Z,18.9
2023-04-25T01:38:02.107Z,18.9
2023-04-25T01:39:18.272Z,18.9
2023-04-25T01:40:34.438Z,18.9
2023-04-25T01:41:50.596Z,18.9
2023-04-25T01:43:06.762Z,18.9
2023-04-25T01:44:22.919Z,18.9
2023-04-25T01:45:39.083Z,18.8
2023-04-25T01:46:54.267Z,18.8
2023-04-25T01:48:10.425Z,18.8
2023-04-25T01:49:26.581Z,18.8
2023-04-25T01:50:42.755Z,18.9
2023-04-25T01:51:58.905Z,18.8
2023-04-25T01:53:15.070Z,18.8
2023-04-25T01:54:31.228Z,18.9
2023-04-25T01:55:47.406Z,18.9
2023-04-25T01:57:03.550Z,18.9
2023-04-25T01:58:19.715Z,18.9
2023-04-25T01:59:35.873Z,18.9
2023-04-25T02:00:52.039Z,18.9
2023-04-25T02:02:08.204Z,18.9
2023-04-25T02:03:23.375Z,18.9
2023-04-25T02:04:39.537Z,18.9
2023-04-25T02:05:55.697Z,18.9
2023-04-25T02:07:11.872Z,18.8
2023-04-25T02:08:28.033Z,18.9
2023-04-25T02:09:44.189Z,18.8
2023-04-25T02:11:00.362Z,18.8
2023-04-25T02:12:16.519Z,18.8
2023-04-25T02:13:32.663Z,18.8
2023-04-25T02:14:48.818Z,18.8
2023-04-25T02:16:04.987Z,18.8
2023-04-25T02:17:21.143Z,18.8
2023-04-25T02:18:37.296Z,18.8
2023-04-25T02:19:52.466Z,18.8
2023-04-25T02:21:08.621Z,18.8
2023-04-25T02:22:24.787Z,18.8
2023-04-25T02:23:40.938Z,18.8
2023-04-25T02:24:57.088Z,18.8
2023-04-25T02:26:13.240Z,18.8
2023-04-25T02:27:29.397Z,18.8
2023-04-25T02:28:45.563Z,18.8
2023-04-25T02:30:01.699Z,18.8
2023-04-25T02:31:17.870Z,18.8
2023-04-25T02:32:34.022Z,18.8
2023-04-25T02:33:50.167Z,18.8
2023-04-25T02:35:06.334Z,18.8
2023-04-25T02:36:21.506Z,18.8
2023-04-25T02:37:37.664Z,18.8
2023-04-25T02:38:53.829Z,18.8
2023-04-25T02:40:09.966Z,18.8
2023-04-25T02:41:26.130Z,18.8
2023-04-25T02:42:42.281Z,18.8
2023-04-25T02:43:58.446Z,18.8
2023-04-25T02:45:14.597Z,18.8
2023-04-25T02:46:30.755Z,18.8
2023-04-25T02:47:46.905Z,18.8
2023-04-25T02:49:03.078Z,18.8
2023-04-25T02:50:19.229Z,18.8
2023-04-25T02:51:35.378Z,18.8
2023-04-25T02:52:50.563Z,18.8
2023-04-25T02:54:06.727Z,18.8
2023-04-25T02:55:22.887Z,18.8
2023-04-25T02:56:39.043Z,18.8
2023-04-25T02:57:55.208Z,18.8
2023-04-25T02:59:11.373Z,18.8
2023-04-25T03:00:27.542Z,18.8
2023-04-25T03:01:43.702Z,18.8
2023-04-25T03:02:59.883Z,18.8
2023-04-25T03:04:16.029Z,18.8
2023-04-25T03:05:32.189Z,18.8
2023-04-25T03:06:48.363Z,18.8
2023-04-25T03:08:04.514Z,18.8
2023-04-25T03:09:19.696Z,18.8
2023-04-25T03:10:35.847Z,18.8
2023-04-25T03:11:52.014Z,18.8
2023-04-25T03:13:08.178Z,18.8
2023-04-25T03:14:24.342Z,18.8
2023-04-25T03:15:40.499Z,18.8
2023-04-25T03:16:56.671Z,18.8
2023-04-25T03:18:12.843Z,18.8
2023-04-25T03:19:29.001Z,18.8
2023-04-25T03:20:45.159Z,18.8
2023-04-25T03:22:01.323Z,18.8
2023-04-25T03:23:17.469Z,18.8
2023-04-25T03:24:33.639Z,18.8
2023-04-25T03:25:48.794Z,18.8
2023-04-25T03:27:04.948Z,18.8
2023-04-25T03:28:21.118Z,18.8
2023-04-25T03:29:37.261Z,18.8
2023-04-25T03:30:53.433Z,18.8
2023-04-25T03:32:09.583Z,18.8
2023-04-25T03:33:25.749Z,18.8
2023-04-25T03:34:41.915Z,18.8
2023-04-25T03:35:58.056Z,18.8
2023-04-25T03:37:14.229Z,18.8
2023-04-25T03:38:30.381Z,18.8
2023-04-25T03:39:46.531Z,18.8
2023-04-25T03:41:02.696Z,18.8
2023-04-25T03:42:17.872Z,18.8
2023-04-25T03:43:34.040Z,18.8
2023-04-25T03:44:50.181Z,18.8
2023-04-25T03:46:06.362Z,18.7
2023-04-25T03:47:22.518Z,18.7
2023-04-25T03:48:38.675Z,18.7
2023-04-25T03:49:54.848Z,18.7
2023-04-25T03:51:11.006Z,18.7
2023-04-25T03:52:27.163Z,18.7
2023-04-25T03:53:43.331Z,18.7
2023-04-25T03:54:59.492Z,18.7
2023-04-25T03:56:15.650Z,18.7
2023-04-25T03:57:31.808Z,18.7
2023-04-25T03:58:46.994Z,18.7
2023-04-25T04:00:03.150Z,18.7
2023-04-25T04:01:19.314Z,18.7
2023-04-25T04:02:35.465Z,18.7
2023-04-25T04:03:51.639Z,18.7
2023-04-25T04:05:07.808Z,18.7
2023-04-25T04:06:23.960Z,18.7
2023-04-25T04:07:40.127Z,18.7
2023-04-25T04:08:56.296Z,18.7
2023-04-25T04:10:12.447Z,18.7
2023-04-25T04:11:28.613Z,18.7
2023-04-25T04:12:44.785Z,18.7
2023-04-25T04:14:00.950Z,18.7
2023-04-25T04:15:17.101Z,18.7
2023-04-25T04:16:32.284Z,18.7
2023-04-25T04:17:48.447Z,18.7
2023-04-25T04:19:04.607Z,18.7
2023-04-25T04:20:20.778Z,18.7
2023-04-25T04:21:36.929Z,18.7
2023-04-25T04:22:53.088Z,18.7
2023-04-25T04:24:09.244Z,18.7
2023-04-25T04:25:25.413Z,18.7
2023-04-25T04:26:41.564Z,18.7
2023-04-25T04:27:57.718Z,18.7
2023-04-25T04:29:13.883Z,18.7
2023-04-25T04:30:30.048Z,18.7
2023-04-25T04:31:46.194Z,18.7
2023-04-25T04:33:01.380Z,18.7
2023-04-25T04:34:17.534Z,18.7
2023-04-25T04:35:33.690Z,18.7
2023-04-25T04:36:49.834Z,18.6
2023-04-25T04:38:06.001Z,18.6
2023-04-25T04:39:21.176Z,18.6
2023-04-25T04:40:37.325Z,18.6
2023-04-25T04:41:53.492Z,18.6
2023-04-25T04:43:09.642Z,18.6
2023-04-25T04:44:25.796Z,18.6
2023-04-25T04:45:41.967Z,18.6
2023-04-25T04:46:58.129Z,18.6
2023-04-25T04:48:14.287Z,18.6
2023-04-25T04:49:30.445Z,18.6
2023-04-25T04:50:46.604Z,18.6
2023-04-25T04:52:02.761Z,18.6
2023-04-25T04:53:18.917Z,18.6
2023-04-25T04:54:35.078Z,18.6
2023-04-25T04:55:51.231Z,18.6
2023-04-25T04:57:06.417Z,18.6
2023-04-25T04:58:22.579Z,18.6
2023-04-25T04:59:38.733Z,18.6
2023-04-25T05:00:54.898Z,18.6
2023-04-25T05:02:11.070Z,18.6
2023-04-25T05:03:27.250Z,18.6
2023-04-25T05:04:43.415Z,18.6
2023-04-25T05:05:59.586Z,18.6
2023-04-25T05:07:15.735Z,18.6
2023-04-25T05:08:31.916Z,18.6
2023-04-25T05:09:48.073Z,18.6
2023-04-25T05:11:04.232Z,18.6
2023-04-25T05:12:20.411Z,18.6
2023-04-25T05:13:36.582Z,18.6
2023-04-25T05:14:51.760Z,18.6
2023-04-25T05:16:07.924Z,18.6
2023-04-25T05:17:24.096Z,18.6
2023-04-25T05:18:40.281Z,18.6
2023-04-25T05:19:56.431Z,18.6
2023-04-25T05:21:12.606Z,18.6
2023-04-25T05:22:28.778Z,18.6
2023-04-25T05:23:44.956Z,18.6
2023-04-25T05:25:01.135Z,18.6
2023-04-25T05:26:17.307Z,18.6
2023-04-25T05:27:33.478Z,18.6
2023-04-25T05:28:49.636Z,18.6
2023-04-25T05:30:05.816Z,18.6
2023-04-25T05:31:21.973Z,18.6
2023-04-25T05:32:37.164Z,18.6
2023-04-25T05:33:53.314Z,18.6
2023-04-25T05:35:09.487Z,18.6
2023-04-25T05:36:25.658Z,18.6
2023-04-25T05:37:41.825Z,18.6
2023-04-25T05:38:57.988Z,18.6
2023-04-25T05:40:14.146Z,18.6
2023-04-25T05:41:30.326Z,18.6
2023-04-25T05:42:46.504Z,18.6
2023-04-25T05:44:02.663Z,18.6
2023-04-25T05:45:18.843Z,18.6
2023-04-25T05:46:35.006Z,18.6
2023-04-25T05:47:51.169Z,18.6
2023-04-25T05:49:07.336Z,18.6
2023-04-25T05:50:22.504Z,18.7
2023-04-25T05:51:38.677Z,18.7
2023-04-25T05:52:54.866Z,18.7
2023-04-25T05:54:11.028Z,18.7
2023-04-25T05:55:27.214Z,18.7
2023-04-25T05:56:43.386Z,18.7
2023-04-25T05:57:59.544Z,18.7
2023-04-25T05:59:15.709Z,18.7
2023-04-25T06:00:31.900Z,18.7
2023-04-25T06:01:48.073Z,18.7
2023-04-25T06:03:04.231Z,18.7
2023-04-25T06:04:20.410Z,18.7
2023-04-25T06:05:36.597Z,18.7
2023-04-25T06:06:52.776Z,18.7
2023-04-25T06:08:07.958Z,18.7
2023-04-25T06:09:24.131Z,18.7
2023-04-25T06:10:40.303Z,18.7
2023-04-25T06:11:56.468Z,18.7
2023-04-25T06:13:12.633Z,18.7
2023-04-25T06:14:28.805Z,18.7
2023-04-25T06:15:44.991Z,18.7
2023-04-25T06:17:01.156Z,18.7
2023-04-25T06:18:17.320Z,18.7
2023-04-25T06:19:33.493Z,18.7
2023-04-25T06:20:49.651Z,18.8
2023-04-25T06:22:05.830Z,18.7
2023-04-25T06:23:21.987Z,18.7
2023-04-25T06:24:38.157Z,18.7
2023-04-25T06:25:53.329Z,18.7
2023-04-25T06:27:09.500Z,18.7
2023-04-25T06:28:25.674Z,18.7
2023-04-25T06:29:41.830Z,18.7
2023-04-25T06:30:58.001Z,18.7
2023-04-25T06:32:14.167Z,18.8
2023-04-25T06:33:30.333Z,18.8
2023-04-25T06:34:46.497Z,18.8
2023-04-25T06:36:02.656Z,18.8
2023-04-25T06:37:18.834Z,18.8
2023-04-25T06:38:34.999Z,18.8
2023-04-25T06:39:51.164Z,18.8
2023-04-25T06:41:07.332Z,18.8
2023-04-25T06:42:22.490Z,18.8
2023-04-25T06:43:38.657Z,18.9
2023-04-25T06:44:54.834Z,18.8
2023-04-25T06:46:10.979Z,18.9
2023-04-25T06:47:27.143Z,18.9
2023-04-25T06:48:43.308Z,18.9
2023-04-25T06:49:59.473Z,18.9
2023-04-25T06:51:15.645Z,18.9
2023-04-25T06:52:31.810Z,18.9
2023-04-25T06:53:47.976Z,18.9
2023-04-25T06:55:04.147Z,18.9
2023-04-25T06:56:20.305Z,18.9
2023-04-25T06:57:36.484Z,18.9
2023-04-25T06:58:51.659Z,18.9
2023-04-25T07:00:07.818Z,18.9
2023-04-25T07:01:23.968Z,18.9
2023-04-25T07:02:40.134Z,19
2023-04-25T07:03:56.305Z,18.9
2023-04-25T07:05:12.462Z,19
2023-04-25T07:06:28.622Z,18.9
2023-04-25T07:07:44.787Z,19
2023-04-25T07:09:00.972Z,19
2023-04-25T07:10:17.130Z,19
2023-04-25T07:11:33.279Z,19
2023-04-25T07:12:49.438Z,19
2023-04-25T07:14:05.596Z,19
2023-04-25T07:15:20.788Z,19
2023-04-25T07:16:36.938Z,19
2023-04-25T07:17:53.124Z,19
2023-04-25T07:19:09.289Z,19
2023-04-25T07:20:25.453Z,19
2023-04-25T07:21:41.619Z,19
2023-04-25T07:22:57.780Z,19
2023-04-25T07:24:13.943Z,19
2023-04-25T07:25:30.114Z,19.1
2023-04-25T07:26:46.300Z,19.1
2023-04-25T07:28:02.450Z,19.1
2023-04-25T07:29:18.000Z,19.1
2023-04-25T07:30:34.789Z,19.1
2023-04-25T07:31:49.961Z,19.1
2023-04-25T07:33:06.137Z,19.1
2023-04-25T07:34:22.287Z,19.1
2023-04-25T07:35:38.444Z,19.1
2023-04-25T07:36:54.623Z,19.1
2023-04-25T07:38:10.781Z,19.1
2023-04-25T07:39:26.940Z,19.1
2023-04-25T07:40:43.103Z,19.1
2023-04-25T07:41:59.260Z,19.1
2023-04-25T07:43:15.427Z,19.1
2023-04-25T07:44:31.591Z,19.2
2023-04-25T07:45:47.764Z,19.2
2023-04-25T07:47:03.921Z,19.2
2023-04-25T07:48:19.104Z,19.2
2023-04-25T07:49:35.262Z,19.2
2023-04-25T07:50:51.419Z,19.2
2023-04-25T07:52:07.592Z,19.2
2023-04-25T07:53:23.750Z,19.2
2023-04-25T07:54:39.915Z,19.2
2023-04-25T07:55:56.073Z,19.2
2023-04-25T07:57:12.237Z,19.2
2023-04-25T07:58:28.402Z,19.2
2023-04-25T07:59:44.561Z,19.3
2023-04-25T08:01:00.726Z,19.3
2023-04-25T08:02:16.885Z,19.3
2023-04-25T08:03:33.042Z,19.3
2023-04-25T08:04:49.205Z,19.3
2023-04-25T08:06:04.374Z,19.3
2023-04-25T08:07:20.525Z,19.3
2023-04-25T08:08:36.708Z,19.3
2023-04-25T08:09:52.863Z,19.3
2023-04-25T08:11:09.021Z,19.3
2023-04-25T08:12:25.169Z,19.4
2023-04-25T08:13:41.329Z,19.4
2023-04-25T08:14:57.488Z,19.4
2023-04-25T08:16:13.652Z,19.4
2023-04-25T08:17:29.816Z,19.4
2023-04-25T08:18:45.968Z,19.4
2023-04-25T08:20:02.126Z,19.4
2023-04-25T08:21:18.291Z,19.4
2023-04-25T08:22:34.454Z,19.4
2023-04-25T08:23:49.631Z,19.4
2023-04-25T08:25:05.790Z,19.4
2023-04-25T08:26:21.947Z,19.4
2023-04-25T08:27:38.109Z,19.4
2023-04-25T08:28:54.269Z,19.4
2023-04-25T08:30:10.432Z,19.4
2023-04-25T08:31:26.585Z,19.4
2023-04-25T08:32:42.722Z,19.4
2023-04-25T08:33:58.897Z,19.4
2023-04-25T08:35:15.038Z,19.4
2023-04-25T08:36:31.189Z,19.5
2023-04-25T08:37:47.361Z,19.5
2023-04-25T08:39:03.505Z,19.5
2023-04-25T08:40:19.656Z,19.5
2023-04-25T08:41:34.832Z,19.5
2023-04-25T08:42:50.997Z,19.5
2023-04-25T08:44:07.149Z,19.5
2023-04-25T08:45:23.307Z,19.5
2023-04-25T08:46:39.456Z,19.5
2023-04-25T08:47:55.611Z,19.5
2023-04-25T08:49:11.765Z,19.5
2023-04-25T08:50:27.929Z,19.5
2023-04-25T08:51:44.082Z,19.6
2023-04-25T08:53:00.247Z,19.6
2023-04-25T08:54:15.430Z,19.6
2023-04-25T08:55:31.572Z,19.6
2023-04-25T08:56:47.743Z,19.6
2023-04-25T08:58:03.902Z,19.6
2023-04-25T08:59:20.053Z,19.6
2023-04-25T09:00:36.223Z,19.6
2023-04-25T09:01:52.376Z,19.6
2023-04-25T09:03:08.533Z,19.7
2023-04-25T09:04:24.692Z,19.7
2023-04-25T09:05:40.860Z,19.7
2023-04-25T09:06:56.999Z,19.7
2023-04-25T09:08:13.158Z,19.7
2023-04-25T09:09:29.317Z,19.7
2023-04-25T09:10:44.485Z,19.7
2023-04-25T09:12:00.621Z,19.8
2023-04-25T09:13:16.774Z,19.8
2023-04-25T09:14:32.923Z,19.8
2023-04-25T09:15:49.081Z,19.8
2023-04-25T09:17:05.238Z,19.8
2023-04-25T09:18:21.375Z,19.8
2023-04-25T09:19:37.548Z,19.8
2023-04-25T09:20:53.697Z,19.8
2023-04-25T09:22:09.842Z,19.8
2023-04-25T09:23:25.992Z,19.8
2023-04-25T09:24:42.150Z,19.8
2023-04-25T09:25:58.287Z,19.8
2023-04-25T09:27:13.456Z,19.8
2023-04-25T09:28:29.614Z,19.8
2023-04-25T09:29:45.759Z,19.9
2023-04-25T09:31:01.910Z,19.8
2023-04-25T09:32:18.045Z,19.9
2023-04-25T09:33:34.190Z,19.9
2023-04-25T09:34:50.353Z,19.9
2023-04-25T09:36:06.498Z,19.9
2023-04-25T09:37:22.642Z,19.9
2023-04-25T09:38:38.800Z,19.9
2023-04-25T09:39:54.964Z,19.9
2023-04-25T09:41:11.101Z,19.9
2023-04-25T09:42:27.267Z,20
2023-04-25T09:43:42.420Z,20
2023-04-25T09:44:58.572Z,20
2023-04-25T09:46:14.738Z,20
2023-04-25T09:47:30.880Z,20
2023-04-25T09:48:47.038Z,20
2023-04-25T09:50:03.189Z,20
2023-04-25T09:51:19.333Z,20
2023-04-25T09:52:35.485Z,20
2023-04-25T09:53:51.640Z,20
2023-04-25T09:55:07.793Z,20
2023-04-25T09:56:23.958Z,20.1
2023-04-25T09:57:40.114Z,20.1
2023-04-25T09:58:56.245Z,20.1
2023-04-25T10:00:11.414Z,20.1
2023-04-25T10:01:27.572Z,20.1
2023-04-25T10:02:43.732Z,20.1
2023-04-25T10:03:59.861Z,20.1
2023-04-25T10:05:16.003Z,20.1
2023-04-25T10:06:32.155Z,20.2
2023-04-25T10:07:48.300Z,20.2
2023-04-25T10:09:04.441Z,20.2
2023-04-25T10:10:20.593Z,20.2
2023-04-25T10:11:36.729Z,20.2
2023-04-25T10:12:52.873Z,20.2
2023-04-25T10:14:09.010Z,20.2
2023-04-25T10:15:25.153Z,20.2
2023-04-25T10:16:40.316Z,20.2
2023-04-25T10:17:56.458Z,20.2
2023-04-25T10:19:12.604Z,20.2
2023-04-25T10:20:28.762Z,20.2
2023-04-25T10:21:44.904Z,20.2
2023-04-25T10:23:01.034Z,20.2
2023-04-25T10:24:17.178Z,20.2
2023-04-25T10:25:33.321Z,20.2
2023-04-25T10:26:49.472Z,20.2
2023-04-25T10:28:05.620Z,20.2
2023-04-25T10:29:21.754Z,20.2
2023-04-25T10:30:37.892Z,20.2
2023-04-25T10:31:54.034Z,20.2
2023-04-25T10:33:09.183Z,20.2
2023-04-25T10:34:25.326Z,20.2
2023-04-25T10:35:41.462Z,20.2
2023-04-25T10:36:57.000Z,20.2
2023-04-25T10:38:13.755Z,20.2
2023-04-25T10:39:29.891Z,20.2
2023-04-25T10:40:46.039Z,20.2
2023-04-25T10:42:02.173Z,20.2
2023-04-25T10:43:18.304Z,20.2
2023-04-25T10:44:34.440Z,20.2
2023-04-25T10:45:50.597Z,20.2
2023-04-25T10:47:06.729Z,20.2
2023-04-25T10:48:22.864Z,20.2
2023-04-25T10:49:38.020Z,20.1
2023-04-25T10:50:54.176Z,20.1
2023-04-25T10:52:10.307Z,20.1
2023-04-25T10:53:26.451Z,20.1
2023-04-25T10:54:42.587Z,20.1
2023-04-25T10:55:58.743Z,20.1
2023-04-25T10:57:14.883Z,20.1
2023-04-25T10:58:31.026Z,20.1
2023-04-25T10:59:47.163Z,20.1
2023-04-25T11:01:03.306Z,20.1
2023-04-25T11:02:19.464Z,20.1
2023-04-25T11:03:35.610Z,20
2023-04-25T11:04:51.756Z,20.1
2023-04-25T11:06:06.914Z,20
2023-04-25T11:07:23.057Z,20
2023-04-25T11:08:39.201Z,20
2023-04-25T11:09:55.352Z,20
2023-04-25T11:11:11.489Z,20
2023-04-25T11:12:27.631Z,20
2023-04-25T11:13:43.761Z,20
2023-04-25T11:14:59.919Z,20
2023-04-25T11:16:16.057Z,20
2023-04-25T11:17:32.207Z,19.9
2023-04-25T11:18:48.337Z,19.9
2023-04-25T11:20:04.480Z,19.9
2023-04-25T11:21:20.617Z,19.9
2023-04-25T11:22:35.786Z,19.9
2023-04-25T11:23:51.922Z,19.9
2023-04-25T11:25:08.065Z,19.9
2023-04-25T11:26:24.195Z,19.9
2023-04-25T11:27:40.346Z,19.9
2023-04-25T11:28:56.487Z,19.9
2023-04-25T11:30:12.626Z,19.9
2023-04-25T11:31:28.785Z,19.9
2023-04-25T11:32:44.915Z,19.9
2023-04-25T11:34:01.061Z,19.9
2023-04-25T11:35:17.203Z,19.9
2023-04-25T11:36:33.346Z,19.9
2023-04-25T11:37:49.498Z,19.9
2023-04-25T11:39:04.661Z,19.9
2023-04-25T11:40:20.795Z,19.9
2023-04-25T11:41:36.940Z,19.9
2023-04-25T11:42:53.083Z,19.9
2023-04-25T11:44:09.247Z,19.9
2023-04-25T11:45:25.378Z,19.9
2023-04-25T11:46:41.535Z,19.9
2023-04-25T11:47:57.679Z,20
2023-04-25T11:49:13.823Z,20
2023-04-25T11:50:29.953Z,20
2023-04-25T11:51:46.096Z,20
2023-04-25T11:53:02.247Z,20
2023-04-25T11:54:18.387Z,20
2023-04-25T11:55:33.554Z,20
2023-04-25T11:56:49.703Z,20.1
2023-04-25T11:58:05.862Z,20.1
2023-04-25T11:59:22.006Z,20.1
2023-04-25T12:00:38.145Z,20.1
2023-04-25T12:01:54.293Z,20.1
2023-04-25T12:03:10.430Z,20.1
2023-04-25T12:04:26.588Z,20.1
2023-04-25T12:05:42.732Z,20.1
2023-04-25T12:06:58.883Z,20.2
2023-04-25T12:08:15.040Z,20.2
2023-04-25T12:09:31.191Z,20.2
2023-04-25T12:10:47.335Z,20.2
2023-04-25T12:12:02.490Z,20.2
2023-04-25T12:13:18.648Z,20.3
2023-04-25T12:14:34.784Z,20.3
2023-04-25T12:15:50.929Z,20.3
2023-04-25T12:17:07.065Z,20.3
2023-04-25T12:18:23.209Z,20.4
2023-04-25T12:19:39.362Z,20.4
2023-04-25T12:20:55.520Z,20.4
2023-04-25T12:22:11.647Z,20.4
2023-04-25T12:23:27.784Z,20.4
2023-04-25T12:24:43.934Z,20.4
2023-04-25T12:26:00.085Z,20.5
2023-04-25T12:27:16.222Z,20.4
2023-04-25T12:28:31.385Z,20.4
2023-04-25T12:29:47.521Z,20.4
2023-04-25T12:31:03.665Z,20.4
2023-04-25T12:32:19.801Z,20.4
2023-04-25T12:34:52.045Z,20.4
2023-04-25T12:36:08.192Z,20.4
2023-04-25T12:37:24.342Z,20.4
2023-04-25T12:38:40.480Z,20.4
2023-04-25T12:39:56.616Z,20.4
2023-04-25T12:41:12.773Z,20.4
2023-04-25T12:42:28.910Z,20.4
2023-04-25T12:43:45.040Z,20.4
2023-04-25T12:45:00.195Z,20.4
2023-04-25T12:46:16.347Z,20.4
2023-04-25T12:47:32.485Z,20.4
2023-04-25T12:48:48.633Z,20.4
2023-04-25T12:50:04.770Z,20.4
2023-04-25T12:51:20.900Z,20.4
2023-04-25T12:52:37.049Z,20.5
2023-04-25T12:53:53.195Z,20.5
2023-04-25T12:55:09.338Z,20.6
2023-04-25T12:56:25.475Z,20.6
2023-04-25T12:57:41.626Z,20.7
2023-04-25T12:58:57.762Z,20.7
2023-04-25T13:00:13.901Z,20.7
2023-04-25T13:01:29.054Z,20.8
2023-04-25T13:02:45.190Z,20.9
2023-04-25T13:04:01.334Z,21
2023-04-25T13:05:17.478Z,21.2
2023-04-25T13:06:33.608Z,21.4
2023-04-25T13:07:49.760Z,21.7
2023-04-25T13:09:04.909Z,21.9
2023-04-25T13:10:21.057Z,22.1
2023-04-25T13:11:37.195Z,22.4
2023-04-25T13:12:53.319Z,22.6
2023-04-25T13:14:09.468Z,22.8
2023-04-25T13:15:25.596Z,22.7
2023-04-25T13:16:41.722Z,22.7
2023-04-25T13:17:57.857Z,22.7
2023-04-25T13:20:30.102Z,22.4
2023-04-25T13:21:46.238Z,22.3
2023-04-25T13:23:02.354Z,22.2
2023-04-25T13:24:18.476Z,22.4
2023-04-25T13:25:33.618Z,22.4
2023-04-25T13:26:49.740Z,22.5
2023-04-25T13:28:05.866Z,22.5
2023-04-25T13:29:21.985Z,22.4
2023-04-25T13:30:38.086Z,22.3
2023-04-25T13:31:54.209Z,22.2
2023-04-25T13:33:10.312Z,22.1
2023-04-25T13:34:26.426Z,22.1
2023-04-25T13:35:42.548Z,22.1
2023-04-25T13:36:58.660Z,22
2023-04-25T13:38:14.774Z,22
2023-04-25T13:39:30.888Z,21.9
2023-04-25T13:40:46.991Z,21.9
2023-04-25T13:42:03.093Z,21.8
2023-04-25T13:43:18.230Z,21.8
2023-04-25T13:44:34.330Z,21.8
2023-04-25T13:45:50.456Z,21.8
2023-04-25T13:47:06.574Z,21.8
2023-04-25T13:48:22.694Z,21.7
2023-04-25T13:49:38.793Z,21.7
2023-04-25T13:50:54.918Z,21.7
2023-04-25T13:52:11.026Z,21.7
2023-04-25T13:53:27.149Z,21.7
2023-04-25T13:54:43.260Z,21.7
2023-04-25T13:55:59.380Z,21.9
2023-04-25T13:57:15.490Z,21.8
2023-04-25T13:58:31.612Z,21.8
2023-04-25T13:59:46.739Z,21.7
2023-04-25T14:01:02.854Z,21.7
2023-04-25T14:02:18.973Z,21.7
2023-04-25T14:03:35.101Z,21.6
2023-04-25T14:04:51.238Z,21.6
2023-04-25T14:06:07.344Z,21.6
2023-04-25T14:07:23.477Z,21.5
2023-04-25T14:08:39.589Z,21.5
2023-04-25T14:09:55.713Z,21.5
2023-04-25T14:11:11.828Z,21.6
2023-04-25T14:12:27.950Z,21.5
2023-04-25T14:13:44.064Z,21.5
2023-04-25T14:15:00.195Z,21.4
2023-04-25T14:16:15.329Z,21.4
2023-04-25T14:17:31.430Z,21.4
2023-04-25T14:18:47.553Z,21.5
2023-04-25T14:20:03.668Z,21.6
2023-04-25T14:21:19.791Z,21.5
2023-04-25T14:22:35.892Z,21.6
2023-04-25T14:23:52.014Z,21.5
2023-04-25T14:25:08.130Z,21.6
2023-04-25T14:26:24.246Z,21.6
2023-04-25T14:27:40.376Z,21.7
2023-04-25T14:28:56.469Z,21.7
2023-04-25T14:30:12.585Z,21.7
2023-04-25T14:31:28.722Z,21.7
2023-04-25T14:32:43.851Z,21.7
2023-04-25T14:33:59.968Z,21.7
2023-04-25T14:35:16.080Z,21.7
2023-04-25T14:36:32.195Z,21.7
2023-04-25T14:37:48.318Z,21.7
2023-04-25T14:39:04.428Z,21.8
2023-04-25T14:40:20.527Z,21.8
2023-04-25T14:41:36.637Z,21.8
2023-04-25T14:42:52.759Z,21.8
2023-04-25T14:44:08.869Z,21.8
2023-04-25T14:45:24.970Z,21.9
2023-04-25T14:46:41.078Z,21.9
2023-04-25T14:47:57.201Z,21.9
2023-04-25T14:49:12.327Z,21.9
2023-04-25T14:50:28.435Z,21.9
2023-04-25T14:51:44.552Z,21.9
2023-04-25T14:53:00.666Z,22
2023-04-25T14:54:16.774Z,22
2023-04-25T14:55:32.892Z,22
2023-04-25T14:56:49.005Z,22
2023-04-25T14:58:05.122Z,22
2023-04-25T14:59:21.219Z,22
2023-04-25T15:00:37.333Z,22.1
2023-04-25T15:01:53.443Z,22.1
2023-04-25T15:03:09.556Z,22.1
2023-04-25T15:04:25.673Z,22.1
2023-04-25T15:05:40.793Z,22.1
2023-04-25T15:06:56.921Z,22.1
2023-04-25T15:08:13.025Z,22.1
2023-04-25T15:09:29.138Z,22.1
2023-04-25T15:10:45.239Z,22.1
2023-04-25T15:12:01.355Z,22.1
2023-04-25T15:13:17.476Z,22.1
2023-04-25T15:14:33.585Z,22.1
2023-04-25T15:15:49.701Z,22.1
2023-04-25T15:17:05.823Z,22.1
2023-04-25T15:18:21.940Z,22.1
2023-04-25T15:19:38.040Z,22.1
2023-04-25T15:20:54.156Z,22.1
2023-04-25T15:22:09.282Z,22.1
2023-04-25T15:23:25.393Z,22
2023-04-25T15:24:41.521Z,22
2023-04-25T15:25:57.644Z,22
2023-04-25T15:27:13.761Z,21.9
2023-04-25T15:28:29.878Z,21.9
2023-04-25T15:29:45.983Z,21.9
2023-04-25T15:31:02.107Z,21.8
2023-04-25T15:32:18.220Z,21.8
2023-04-25T15:33:34.336Z,21.8
2023-04-25T15:34:50.468Z,21.7
2023-04-25T15:36:06.577Z,21.7
2023-04-25T15:37:22.690Z,21.7
2023-04-25T15:38:37.832Z,21.6
2023-04-25T15:39:53.955Z,21.6
2023-04-25T15:41:10.077Z,21.6
2023-04-25T15:42:26.192Z,21.6
2023-04-25T15:43:42.312Z,21.7
2023-04-25T15:44:58.444Z,21.6
2023-04-25T15:46:14.571Z,21.6
2023-04-25T15:47:30.696Z,21.6
2023-04-25T15:48:46.818Z,21.5
2023-04-25T15:50:02.956Z,21.5
2023-04-25T15:51:19.080Z,21.5
2023-04-25T15:52:35.197Z,21.4
2023-04-25T15:53:51.318Z,21.4
2023-04-25T15:55:06.449Z,21.4
2023-04-25T15:56:22.566Z,21.3
2023-04-25T15:57:38.696Z,21.3
2023-04-25T15:58:54.818Z,21.3
2023-04-25T16:00:10.941Z,21.2
2023-04-25T16:01:27.062Z,21.2
2023-04-25T16:02:43.171Z,21.2
2023-04-25T16:03:59.294Z,21.1
2023-04-25T16:05:15.410Z,21.1
2023-04-25T16:06:31.533Z,21.1
2023-04-25T16:07:47.655Z,21.1
2023-04-25T16:09:03.790Z,21
2023-04-25T16:10:19.913Z,21
2023-04-25T16:11:35.044Z,21
2023-04-25T16:12:51.170Z,21
2023-04-25T16:14:07.295Z,20.9
2023-04-25T16:15:23.428Z,20.9
2023-04-25T16:16:39.539Z,20.9
2023-04-25T16:17:55.677Z,20.9
2023-04-25T16:19:11.797Z,20.8
2023-04-25T16:20:27.934Z,20.8
2023-04-25T16:21:44.067Z,20.8
2023-04-25T16:23:00.186Z,20.8
2023-04-25T16:24:16.323Z,20.8
2023-04-25T16:25:32.460Z,20.8
2023-04-25T16:26:48.589Z,20.8
2023-04-25T16:28:03.738Z,20.8
2023-04-25T16:29:19.874Z,20.8
2023-04-25T16:30:35.989Z,20.8
2023-04-25T16:31:52.135Z,21.1
2023-04-25T16:33:08.255Z,21.1
2023-04-25T16:34:24.392Z,21
2023-04-25T16:35:40.536Z,21
2023-04-25T16:36:56.656Z,20.9
2023-04-25T16:38:12.794Z,20.9
2023-04-25T16:39:28.934Z,20.9
2023-04-25T16:40:45.075Z,21.1
2023-04-25T16:42:01.220Z,21.1
2023-04-25T16:43:17.356Z,21.2
2023-04-25T16:44:32.503Z,21.2
2023-04-25T16:45:48.627Z,21.2
2023-04-25T16:47:04.765Z,21.2
2023-04-25T16:48:20.886Z,21.2
2023-04-25T16:49:37.023Z,21.3
2023-04-25T16:50:53.166Z,21.2
2023-04-25T16:52:09.304Z,21.2
2023-04-25T16:53:25.440Z,21.2
2023-04-25T16:54:41.573Z,21.2
2023-04-25T16:55:57.697Z,21.2
2023-04-25T16:57:13.822Z,21.2
2023-04-25T16:58:29.959Z,21.2
2023-04-25T16:59:46.094Z,21.2